createdAt,value
2018-09-10T00:00:00.502Z,101096.23
2018-09-10T00:01:03.907Z,101094.61
2018-09-10T00:02:07.346Z,101096.56
2018-09-10T00:03:10.728Z,101094.84
2018-09-10T00:04:14.128Z,101092.08
2018-09-10T00:05:17.491Z,101095.66
2018-09-10T00:06:20.940Z,101091.50
2018-09-10T00:07:24.326Z,101089.31
2018-09-10T00:08:27.713Z,101089.55
2018-09-10T00:09:31.094Z,101094.84
2018-09-10T00:10:34.538Z,101088.98
2018-09-10T00:11:38.472Z,101088.98
2018-09-10T00:12:41.852Z,101096.23
2018-09-10T00:13:45.256Z,101095.32
2018-09-10T00:14:48.646Z,101096.70
2018-09-10T00:15:52.025Z,101090.94
2018-09-10T00:16:55.450Z,101089.55
2018-09-10T00:17:58.823Z,101093.70
2018-09-10T00:19:02.259Z,101092.55
2018-09-10T00:20:05.759Z,101093.12
2018-09-10T00:21:09.142Z,101095.89
2018-09-10T00:22:12.548Z,101089.55
2018-09-10T00:23:15.955Z,101092.89
2018-09-10T00:24:19.396Z,101088.17
2018-09-10T00:25:22.771Z,101090.94
2018-09-10T00:26:26.216Z,101095.08
2018-09-10T00:27:29.637Z,101093.94
2018-09-10T00:28:33.140Z,101091.17
2018-09-10T00:29:36.544Z,101093.12
2018-09-10T00:30:39.982Z,101093.70
2018-09-10T00:31:43.353Z,101086.78
2018-09-10T00:32:46.784Z,101093.94
2018-09-10T00:33:50.202Z,101098.09
2018-09-10T00:34:53.706Z,101092.31
2018-09-10T00:35:57.094Z,101093.70
2018-09-10T00:37:00.505Z,101091.17
2018-09-10T00:38:03.956Z,101090.36
2018-09-10T00:39:10.794Z,101087.02
2018-09-10T00:40:14.257Z,101091.41
2018-09-10T00:41:17.656Z,101086.45
2018-09-10T00:42:21.068Z,101088.41
2018-09-10T00:43:24.497Z,101082.30
2018-09-10T00:44:27.904Z,101087.26
2018-09-10T00:45:31.309Z,101079.23
2018-09-10T00:46:34.730Z,101083.38
2018-09-10T00:47:38.129Z,101082.53
2018-09-10T00:48:41.528Z,101077.58
2018-09-10T00:49:44.932Z,101071.23
2018-09-10T00:50:48.328Z,101071.23
2018-09-10T00:51:51.728Z,101074.00
2018-09-10T00:52:55.251Z,101073.43
2018-09-10T00:53:58.656Z,101074.34
2018-09-10T00:55:02.160Z,101069.48
2018-09-10T00:56:05.600Z,101075.72
2018-09-10T00:57:08.979Z,101072.95
2018-09-10T00:58:12.372Z,101077.91
2018-09-10T00:59:15.808Z,101076.30
2018-09-10T01:00:19.183Z,101073.87
2018-09-10T01:01:22.719Z,101077.44
2018-09-10T01:02:26.143Z,101074.44
2018-09-10T01:03:29.569Z,101073.63
2018-09-10T01:04:33.411Z,101074.44
2018-09-10T01:05:36.808Z,101082.16
2018-09-10T01:06:40.200Z,101075.02
2018-09-10T01:07:43.596Z,101084.69
2018-09-10T01:08:47.009Z,101080.78
2018-09-10T01:09:50.479Z,101079.97
2018-09-10T01:10:53.990Z,101079.97
2018-09-10T01:11:57.400Z,101080.55
2018-09-10T01:13:00.818Z,101079.97
2018-09-10T01:14:04.255Z,101086.89
2018-09-10T01:15:07.672Z,101084.13
2018-09-10T01:16:11.035Z,101083.55
2018-09-10T01:17:14.451Z,101086.08
2018-09-10T01:18:17.883Z,101088.03
2018-09-10T01:19:21.288Z,101082.84
2018-09-10T01:20:24.696Z,101088.03
2018-09-10T01:21:28.097Z,101085.84
2018-09-10T01:22:31.554Z,101088.60
2018-09-10T01:23:34.997Z,101091.13
2018-09-10T01:24:38.399Z,101083.41
2018-09-10T01:25:41.804Z,101081.89
2018-09-10T01:26:45.206Z,101089.17
2018-09-10T01:27:48.652Z,101087.32
2018-09-10T01:28:52.029Z,101086.17
2018-09-10T01:29:55.479Z,101087.32
2018-09-10T01:30:59.114Z,101090.89
2018-09-10T01:32:02.530Z,101089.84
2018-09-10T01:33:10.306Z,101085.94
2018-09-10T01:34:18.964Z,101084.55
2018-09-10T01:35:22.342Z,101085.94
2018-09-10T01:36:25.788Z,101079.59
2018-09-10T01:37:29.180Z,101078.22
2018-09-10T01:38:32.643Z,101071.30
2018-09-10T01:39:36.066Z,101074.41
2018-09-10T01:40:39.429Z,101078.55
2018-09-10T01:41:42.805Z,101077.17
2018-09-10T01:42:46.218Z,101076.36
2018-09-10T01:43:49.641Z,101081.31
2018-09-10T01:44:53.140Z,101081.08
2018-09-10T01:45:56.532Z,101081.66
2018-09-10T01:46:59.948Z,101087.98
2018-09-10T01:48:03.389Z,101090.19
2018-09-10T01:49:06.788Z,101097.09
2018-09-10T01:50:10.173Z,101098.48
2018-09-10T01:51:13.537Z,101096.52
2018-09-10T01:52:16.921Z,101099.77
2018-09-10T01:53:20.329Z,101103.91
2018-09-10T01:54:23.713Z,101108.39
2018-09-10T01:55:27.154Z,101102.29
2018-09-10T01:56:30.576Z,101108.63
2018-09-10T01:57:34.022Z,101107.25
2018-09-10T01:58:37.427Z,101110.83
2018-09-10T01:59:40.832Z,101112.78
2018-09-10T02:00:44.220Z,101111.16
2018-09-10T02:01:48.680Z,101111.40
2018-09-10T02:02:52.099Z,101105.05
2018-09-10T02:03:55.492Z,101101.72
2018-09-10T02:04:58.862Z,101099.52
2018-09-10T02:06:02.287Z,101098.48
2018-09-10T02:07:05.746Z,101103.10
2018-09-10T02:08:09.163Z,101103.10
2018-09-10T02:09:12.598Z,101104.48
2018-09-10T02:10:15.996Z,101110.83
2018-09-10T02:11:19.385Z,101114.64
2018-09-10T02:12:25.189Z,101108.87
2018-09-10T02:13:28.595Z,101102.63
2018-09-10T02:14:32.047Z,101112.34
2018-09-10T02:15:40.798Z,101113.48
2018-09-10T02:16:44.169Z,101108.20
2018-09-10T02:17:47.572Z,101101.28
2018-09-10T02:18:51.005Z,101102.33
2018-09-10T02:19:54.680Z,101100.14
2018-09-10T02:20:58.037Z,101104.28
2018-09-10T02:22:01.530Z,101106.81
2018-09-10T02:23:04.951Z,101109.81
2018-09-10T02:24:08.375Z,101101.52
2018-09-10T02:25:11.771Z,101107.05
2018-09-10T02:26:15.163Z,101123.64
2018-09-10T02:27:18.611Z,101117.54
2018-09-10T02:28:22.031Z,101112.34
2018-09-10T02:29:25.456Z,101115.92
2018-09-10T02:30:28.876Z,101117.54
2018-09-10T02:31:32.305Z,101115.34
2018-09-10T02:32:35.804Z,101116.16
2018-09-10T02:33:39.228Z,101121.45
2018-09-10T02:34:42.613Z,101115.92
2018-09-10T02:35:45.999Z,101117.88
2018-09-10T02:36:49.387Z,101115.92
2018-09-10T02:37:52.824Z,101112.92
2018-09-10T02:38:56.244Z,101109.11
2018-09-10T02:39:59.667Z,101108.30
2018-09-10T02:41:03.208Z,101109.92
2018-09-10T02:42:06.875Z,101111.63
2018-09-10T02:43:10.275Z,101117.97
2018-09-10T02:44:14.506Z,101111.83
2018-09-10T02:45:17.917Z,101107.17
2018-09-10T02:46:21.316Z,101108.97
2018-09-10T02:47:24.685Z,101105.63
2018-09-10T02:48:28.080Z,101111.16
2018-09-10T02:49:31.487Z,101114.50
2018-09-10T02:50:34.926Z,101108.39
2018-09-10T02:51:38.328Z,101112.55
2018-09-10T02:52:41.676Z,101106.53
2018-09-10T02:53:45.108Z,101100.09
2018-09-10T02:54:48.528Z,101100.67
2018-09-10T02:55:51.936Z,101092.78
2018-09-10T02:56:55.312Z,101097.09
2018-09-10T02:57:58.710Z,101095.38
2018-09-10T02:59:02.129Z,101092.61
2018-09-10T03:00:06.798Z,101091.23
2018-09-10T03:01:10.194Z,101094.00
2018-09-10T03:02:13.608Z,101095.38
2018-09-10T03:03:17.015Z,101093.42
2018-09-10T03:04:20.375Z,101098.14
2018-09-10T03:05:23.780Z,101102.86
2018-09-10T03:06:27.190Z,101103.91
2018-09-10T03:07:30.604Z,101089.44
2018-09-10T03:08:33.987Z,101094.57
2018-09-10T03:09:37.363Z,101097.33
2018-09-10T03:10:40.737Z,101100.91
2018-09-10T03:11:44.159Z,101100.09
2018-09-10T03:12:47.639Z,101104.25
2018-09-10T03:13:51.080Z,101099.29
2018-09-10T03:14:54.472Z,101102.86
2018-09-10T03:15:57.840Z,101093.52
2018-09-10T03:17:01.263Z,101097.67
2018-09-10T03:18:04.912Z,101090.75
2018-09-10T03:19:08.243Z,101090.19
2018-09-10T03:20:11.686Z,101092.95
2018-09-10T03:21:15.203Z,101095.72
2018-09-10T03:22:18.567Z,101100.09
2018-09-10T03:23:21.945Z,101098.95
2018-09-10T03:24:25.689Z,101099.19
2018-09-10T03:25:29.024Z,101101.95
2018-09-10T03:26:32.470Z,101099.19
2018-09-10T03:27:35.965Z,101098.95
2018-09-10T03:28:39.368Z,101094.23
2018-09-10T03:29:42.745Z,101100.81
2018-09-10T03:30:46.172Z,101097.80
2018-09-10T03:31:49.678Z,101101.14
2018-09-10T03:32:53.085Z,101098.95
2018-09-10T03:33:56.517Z,101104.48
2018-09-10T03:34:59.944Z,101100.67
2018-09-10T03:36:03.422Z,101098.37
2018-09-10T03:37:06.820Z,101100.57
2018-09-10T03:38:10.283Z,101101.72
2018-09-10T03:39:13.666Z,101105.30
2018-09-10T03:40:17.014Z,101099.52
2018-09-10T03:41:20.601Z,101109.34
2018-09-10T03:42:23.993Z,101112.11
2018-09-10T03:43:27.367Z,101111.53
2018-09-10T03:44:30.791Z,101102.19
2018-09-10T03:45:34.180Z,101106.34
2018-09-10T03:46:37.727Z,101113.25
2018-09-10T03:47:41.069Z,101110.48
2018-09-10T03:48:44.486Z,101107.11
2018-09-10T03:49:47.866Z,101113.59
2018-09-10T03:50:51.258Z,101114.73
2018-09-10T03:51:54.868Z,101116.69
2018-09-10T03:52:58.262Z,101121.98
2018-09-10T03:54:01.901Z,101126.13
2018-09-10T03:55:05.403Z,101124.27
2018-09-10T03:56:08.861Z,101134.42
2018-09-10T03:57:12.245Z,101137.77
2018-09-10T03:58:15.644Z,101136.95
2018-09-10T03:59:19.018Z,101130.04
2018-09-10T04:00:22.394Z,101128.08
2018-09-10T04:01:25.816Z,101126.94
2018-09-10T04:02:29.230Z,101130.84
2018-09-10T04:03:32.739Z,101137.19
2018-09-10T04:04:36.156Z,101136.38
2018-09-10T04:05:39.580Z,101126.86
2018-09-10T04:06:42.965Z,101138.34
2018-09-10T04:07:46.346Z,101141.10
2018-09-10T04:08:49.842Z,101146.39
2018-09-10T04:09:53.351Z,101147.77
2018-09-10T04:10:56.740Z,101144.73
2018-09-10T04:12:00.164Z,101149.97
2018-09-10T04:13:03.877Z,101151.92
2018-09-10T04:14:07.302Z,101147.77
2018-09-10T04:15:10.785Z,101161.59
2018-09-10T04:16:14.185Z,101163.22
2018-09-10T04:17:17.625Z,101164.03
2018-09-10T04:18:21.088Z,101163.45
2018-09-10T04:19:24.502Z,101175.09
2018-09-10T04:20:27.896Z,101168.17
2018-09-10T04:21:31.301Z,101175.91
2018-09-10T04:22:34.663Z,101165.98
2018-09-10T04:23:38.091Z,101171.75
2018-09-10T04:24:41.453Z,101169.15
2018-09-10T04:25:44.851Z,101170.13
2018-09-10T04:26:48.244Z,101167.94
2018-09-10T04:27:51.642Z,101177.86
2018-09-10T04:28:55.013Z,101176.81
2018-09-10T04:29:58.407Z,101176.73
2018-09-10T04:31:02.798Z,101186.72
2018-09-10T04:32:06.211Z,101188.44
2018-09-10T04:33:09.634Z,101190.63
2018-09-10T04:34:13.076Z,101178.34
2018-09-10T04:35:16.501Z,101192.02
2018-09-10T04:36:19.873Z,101182.06
2018-09-10T04:37:23.282Z,101180.14
2018-09-10T04:38:26.733Z,101175.16
2018-09-10T04:39:30.188Z,101182.34
2018-09-10T04:40:33.600Z,101181.77
2018-09-10T04:41:40.104Z,101177.38
2018-09-10T04:42:43.469Z,101180.95
2018-09-10T04:43:46.861Z,101179.87
2018-09-10T04:44:50.335Z,101167.95
2018-09-10T04:45:53.705Z,101182.64
2018-09-10T04:46:57.189Z,101183.14
2018-09-10T04:48:00.675Z,101181.52
2018-09-10T04:49:04.066Z,101177.11
2018-09-10T04:50:07.519Z,101167.86
2018-09-10T04:51:10.903Z,101177.38
2018-09-10T04:52:14.304Z,101179.30
2018-09-10T04:53:17.678Z,101184.83
2018-09-10T04:54:21.098Z,101180.45
2018-09-10T04:55:24.546Z,101173.30
2018-09-10T04:56:27.950Z,101176.06
2018-09-10T04:57:31.637Z,101166.57
2018-09-10T04:58:35.031Z,101171.67
2018-09-10T04:59:38.542Z,101181.02
2018-09-10T05:00:41.924Z,101176.06
2018-09-10T05:01:45.334Z,101179.39
2018-09-10T05:02:48.787Z,101175.82
2018-09-10T05:03:52.183Z,101167.53
2018-09-10T05:04:56.043Z,101172.25
2018-09-10T05:05:59.424Z,101170.86
2018-09-10T05:07:02.842Z,101168.34
2018-09-10T05:08:06.258Z,101164.52
2018-09-10T05:09:10.043Z,101171.67
2018-09-10T05:10:13.467Z,101174.77
2018-09-10T05:11:16.887Z,101182.25
2018-09-10T05:12:20.268Z,101180.88
2018-09-10T05:13:23.829Z,101189.41
2018-09-10T05:14:27.216Z,101186.64
2018-09-10T05:15:30.726Z,101190.55
2018-09-10T05:16:34.159Z,101191.36
2018-09-10T05:17:37.548Z,101196.31
2018-09-10T05:18:40.980Z,101198.84
2018-09-10T05:19:44.402Z,101211.05
2018-09-10T05:20:47.843Z,101200.89
2018-09-10T05:21:51.401Z,101204.70
2018-09-10T05:22:54.775Z,101202.27
2018-09-10T05:23:58.188Z,101202.27
2018-09-10T05:25:01.799Z,101205.28
2018-09-10T05:26:05.282Z,101213.57
2018-09-10T05:27:08.630Z,101211.38
2018-09-10T05:28:12.052Z,101212.52
2018-09-10T05:29:15.461Z,101211.38
2018-09-10T05:30:20.383Z,101202.84
2018-09-10T05:31:25.392Z,101204.80
2018-09-10T05:32:28.780Z,101205.38
2018-09-10T05:33:32.257Z,101207.80
2018-09-10T05:34:35.653Z,101206.99
2018-09-10T05:35:39.043Z,101205.94
2018-09-10T05:36:42.424Z,101202.61
2018-09-10T05:37:45.816Z,101211.70
2018-09-10T05:38:49.268Z,101208.13
2018-09-10T05:39:52.653Z,101211.95
2018-09-10T05:40:56.053Z,101209.19
2018-09-10T05:41:59.448Z,101226.02
2018-09-10T05:43:02.877Z,101221.53
2018-09-10T05:44:06.320Z,101225.11
2018-09-10T05:45:11.720Z,101225.11
2018-09-10T05:46:15.135Z,101226.49
2018-09-10T05:47:18.555Z,101228.92
2018-09-10T05:48:22.076Z,101225.11
2018-09-10T05:49:25.427Z,101229.92
2018-09-10T05:50:28.829Z,101226.67
2018-09-10T05:51:32.275Z,101220.67
2018-09-10T05:52:35.668Z,101213.58
2018-09-10T05:53:39.106Z,101222.20
2018-09-10T05:54:42.467Z,101225.62
2018-09-10T05:55:45.906Z,101225.38
2018-09-10T05:56:49.347Z,101231.25
2018-09-10T05:57:52.720Z,101230.77
2018-09-10T05:58:56.132Z,101222.62
2018-09-10T05:59:59.506Z,101227.84
2018-09-10T06:01:03.145Z,101230.10
2018-09-10T06:02:06.596Z,101226.05
2018-09-10T06:03:10.017Z,101231.90
2018-09-10T06:04:13.494Z,101228.66
2018-09-10T06:05:16.914Z,101237.45
2018-09-10T06:06:20.485Z,101238.73
2018-09-10T06:07:23.889Z,101233.05
2018-09-10T06:08:27.299Z,101233.95
2018-09-10T06:09:30.749Z,101235.66
2018-09-10T06:10:34.265Z,101235.39
2018-09-10T06:11:37.753Z,101229.63
2018-09-10T06:12:41.159Z,101227.10
2018-09-10T06:13:44.707Z,101235.66
2018-09-10T06:14:48.345Z,101232.63
2018-09-10T06:15:51.796Z,101241.19
2018-09-10T06:16:55.358Z,101242.23
2018-09-10T06:17:58.866Z,101252.39
2018-09-10T06:19:02.524Z,101252.63
2018-09-10T06:20:06.080Z,101263.03
2018-09-10T06:21:09.595Z,101267.42
2018-09-10T06:22:13.245Z,101271.80
2018-09-10T06:23:16.990Z,101275.38
2018-09-10T06:24:20.557Z,101274.56
2018-09-10T06:25:24.209Z,101274.33
2018-09-10T06:26:27.928Z,101282.61
2018-09-10T06:27:31.651Z,101279.61
2018-09-10T06:28:35.155Z,101283.75
2018-09-10T06:29:38.822Z,101280.75
2018-09-10T06:30:42.388Z,101284.08
2018-09-10T06:31:45.809Z,101283.52
2018-09-10T06:32:49.259Z,101276.93
2018-09-10T06:33:53.608Z,101285.46
2018-09-10T06:34:57.000Z,101279.12
2018-09-10T06:36:00.434Z,101276.84
2018-09-10T06:37:04.046Z,101270.67
2018-09-10T06:38:07.562Z,101282.13
2018-09-10T06:39:12.438Z,101280.33
2018-09-10T06:40:15.859Z,101280.66
2018-09-10T06:41:19.270Z,101279.61
2018-09-10T06:42:22.742Z,101282.13
2018-09-10T06:43:26.113Z,101279.94
2018-09-10T06:44:29.450Z,101276.60
2018-09-10T06:45:32.864Z,101278.31
2018-09-10T06:46:36.280Z,101282.45
2018-09-10T06:47:39.711Z,101283.27
2018-09-10T06:48:43.124Z,101276.36
2018-09-10T06:49:46.495Z,101273.36
2018-09-10T06:50:49.946Z,101274.98
2018-09-10T06:51:53.418Z,101268.64
2018-09-10T06:52:56.834Z,101262.30
2018-09-10T06:54:00.612Z,101265.31
2018-09-10T06:55:04.052Z,101258.16
2018-09-10T06:56:07.484Z,101261.73
2018-09-10T06:57:10.877Z,101257.59
2018-09-10T06:58:14.268Z,101260.92
2018-09-10T06:59:17.691Z,101259.54
2018-09-10T07:00:21.736Z,101263.92
2018-09-10T07:01:25.163Z,101238.25
2018-09-10T07:02:28.578Z,101242.97
2018-09-10T07:03:32.103Z,101238.25
2018-09-10T07:04:35.512Z,101232.48
2018-09-10T07:05:38.988Z,101233.86
2018-09-10T07:06:42.363Z,101231.67
2018-09-10T07:07:45.792Z,101235.81
2018-09-10T07:08:49.166Z,101240.77
2018-09-10T07:09:52.556Z,101237.77
2018-09-10T07:10:55.983Z,101228.91
2018-09-10T07:11:59.406Z,101232.81
2018-09-10T07:13:02.870Z,101230.86
2018-09-10T07:14:06.308Z,101238.58
2018-09-10T07:15:09.728Z,101246.30
2018-09-10T07:16:13.126Z,101248.00
2018-09-10T07:17:16.509Z,101250.20
2018-09-10T07:18:19.892Z,101251.58
2018-09-10T07:19:23.319Z,101256.30
2018-09-10T07:20:26.712Z,101256.53
2018-09-10T07:21:30.101Z,101251.02
2018-09-10T07:22:33.523Z,101252.39
2018-09-10T07:23:37.087Z,101243.44
2018-09-10T07:24:40.514Z,101249.30
2018-09-10T07:25:43.898Z,101260.35
2018-09-10T07:26:47.280Z,101258.41
2018-09-10T07:27:50.661Z,101261.16
2018-09-10T07:28:54.058Z,101265.31
2018-09-10T07:29:57.441Z,101264.73
2018-09-10T07:31:00.908Z,101263.92
2018-09-10T07:32:04.606Z,101269.12
2018-09-10T07:33:08.031Z,101261.65
2018-09-10T07:34:11.409Z,101267.17
2018-09-10T07:35:14.861Z,101258.41
2018-09-10T07:36:18.295Z,101255.64
2018-09-10T07:37:21.696Z,101256.69
2018-09-10T07:38:25.099Z,101261.41
2018-09-10T07:39:28.462Z,101268.31
2018-09-10T07:40:31.926Z,101263.92
2018-09-10T07:41:35.319Z,101261.73
2018-09-10T07:42:38.744Z,101259.30
2018-09-10T07:43:42.143Z,101269.94
2018-09-10T07:44:45.607Z,101271.32
2018-09-10T07:45:49.006Z,101266.69
2018-09-10T07:46:52.444Z,101265.22
2018-09-10T07:47:55.837Z,101264.25
2018-09-10T07:48:59.278Z,101266.61
2018-09-10T07:50:02.744Z,101266.03
2018-09-10T07:51:06.265Z,101266.94
2018-09-10T07:52:09.649Z,101266.03
2018-09-10T07:53:13.034Z,101266.03
2018-09-10T07:54:16.450Z,101255.16
2018-09-10T07:55:19.868Z,101260.75
2018-09-10T07:56:23.798Z,101253.03
2018-09-10T07:57:27.227Z,101255.80
2018-09-10T07:58:30.703Z,101250.27
2018-09-10T07:59:34.092Z,101246.70
2018-09-10T08:00:37.556Z,101234.67
2018-09-10T08:01:40.933Z,101241.35
2018-09-10T08:02:44.400Z,101241.89
2018-09-10T08:03:47.859Z,101239.55
2018-09-10T08:04:51.257Z,101245.41
2018-09-10T08:05:54.696Z,101249.80
2018-09-10T08:06:58.143Z,101250.37
2018-09-10T08:08:01.584Z,101259.71
2018-09-10T08:09:06.961Z,101251.17
2018-09-10T08:10:10.424Z,101264.67
2018-09-10T08:11:14.183Z,101264.67
2018-09-10T08:12:17.534Z,101281.81
2018-09-10T08:13:20.938Z,101283.77
2018-09-10T08:14:24.325Z,101284.58
2018-09-10T08:15:27.752Z,101290.92
2018-09-10T08:16:31.167Z,101286.20
2018-09-10T08:17:34.631Z,101291.48
2018-09-10T08:18:38.035Z,101290.11
2018-09-10T08:19:41.466Z,101289.86
2018-09-10T08:20:44.862Z,101278.95
2018-09-10T08:21:48.291Z,101293.77
2018-09-10T08:22:51.669Z,101284.09
2018-09-10T08:23:55.046Z,101279.87
2018-09-10T08:24:58.475Z,101270.77
2018-09-10T08:26:01.830Z,101263.61
2018-09-10T08:27:05.534Z,101265.33
2018-09-10T08:28:08.906Z,101264.52
2018-09-10T08:29:12.456Z,101258.98
2018-09-10T08:30:15.873Z,101259.85
2018-09-10T08:31:19.280Z,101257.36
2018-09-10T08:32:22.666Z,101259.85
2018-09-10T08:33:26.072Z,101260.18
2018-09-10T08:34:29.492Z,101254.74
2018-09-10T08:35:32.914Z,101265.95
2018-09-10T08:36:36.330Z,101273.42
2018-09-10T08:37:39.785Z,101270.66
2018-09-10T08:38:43.153Z,101263.36
2018-09-10T08:39:46.563Z,101271.80
2018-09-10T08:40:49.975Z,101273.75
2018-09-10T08:41:53.395Z,101281.47
2018-09-10T08:42:56.935Z,101277.57
2018-09-10T08:44:00.298Z,101273.42
2018-09-10T08:45:03.787Z,101271.80
2018-09-10T08:46:07.243Z,101279.52
2018-09-10T08:47:10.602Z,101285.05
2018-09-10T08:48:14.111Z,101282.85
2018-09-10T08:49:17.490Z,101279.45
2018-09-10T08:50:20.908Z,101277.90
2018-09-10T08:51:24.314Z,101280.66
2018-09-10T08:52:27.771Z,101275.47
2018-09-10T08:53:31.196Z,101275.88
2018-09-10T08:54:34.799Z,101281.80
2018-09-10T08:55:38.094Z,101283.75
2018-09-10T08:56:41.442Z,101285.70
2018-09-10T08:57:44.828Z,101285.38
2018-09-10T08:58:48.247Z,101289.28
2018-09-10T08:59:51.655Z,101290.66
2018-09-10T09:00:55.102Z,101294.23
2018-09-10T09:01:58.603Z,101293.42
2018-09-10T09:03:02.129Z,101296.19
2018-09-10T09:04:06.170Z,101303.66
2018-09-10T09:05:09.570Z,101306.99
2018-09-10T09:06:12.962Z,101307.23
2018-09-10T09:07:16.386Z,101308.86
2018-09-10T09:08:19.867Z,101310.00
2018-09-10T09:09:23.267Z,101313.81
2018-09-10T09:10:26.667Z,101304.72
2018-09-10T09:11:30.077Z,101305.53
2018-09-10T09:12:33.483Z,101301.95
2018-09-10T09:13:36.926Z,101299.43
2018-09-10T09:14:40.306Z,101296.67
2018-09-10T09:15:43.695Z,101293.66
2018-09-10T09:16:47.092Z,101285.13
2018-09-10T09:17:50.478Z,101295.28
2018-09-10T09:18:53.894Z,101290.33
2018-09-10T09:19:57.257Z,101297.48
2018-09-10T09:21:00.790Z,101297.48
2018-09-10T09:22:04.216Z,101287.81
2018-09-10T09:23:07.767Z,101291.72
2018-09-10T09:24:11.086Z,101293.09
2018-09-10T09:25:14.444Z,101294.15
2018-09-10T09:26:17.870Z,101293.34
2018-09-10T09:27:21.344Z,101292.77
2018-09-10T09:28:24.748Z,101295.77
2018-09-10T09:29:28.135Z,101294.15
2018-09-10T09:30:31.605Z,101301.00
2018-09-10T09:31:35.214Z,101304.82
2018-09-10T09:32:38.600Z,101307.02
2018-09-10T09:33:42.054Z,101305.06
2018-09-10T09:34:50.776Z,101307.83
2018-09-10T09:35:59.540Z,101306.45
2018-09-10T09:37:08.041Z,101306.69
2018-09-10T09:38:16.737Z,101303.11
2018-09-10T09:39:25.241Z,101305.55
2018-09-10T09:40:34.012Z,101301.16
2018-09-10T09:41:42.736Z,101303.92
2018-09-10T09:42:51.555Z,101301.41
2018-09-10T09:44:00.362Z,101302.78
2018-09-10T09:45:09.139Z,101300.02
2018-09-10T09:46:14.573Z,101295.30
2018-09-10T09:47:18.003Z,101294.73
2018-09-10T09:48:21.406Z,101292.22
2018-09-10T09:49:24.812Z,101293.59
2018-09-10T09:50:28.214Z,101289.45
2018-09-10T09:51:31.644Z,101282.21
2018-09-10T09:52:35.151Z,101285.79
2018-09-10T09:53:38.607Z,101288.31
2018-09-10T09:54:41.981Z,101284.41
2018-09-10T09:55:45.417Z,101292.38
2018-09-10T09:56:48.839Z,101287.98
2018-09-10T09:57:52.294Z,101293.19
2018-09-10T09:58:55.728Z,101290.66
2018-09-10T09:59:59.132Z,101293.99
2018-09-10T10:01:07.791Z,101290.42
2018-09-10T10:02:19.587Z,101294.48
2018-09-10T10:03:28.191Z,101298.33
2018-09-10T10:04:31.653Z,101291.41
2018-09-10T10:05:35.108Z,101293.85
2018-09-10T10:06:38.596Z,101280.60
2018-09-10T10:07:42.042Z,101290.52
2018-09-10T10:08:45.443Z,101287.99
2018-09-10T10:09:48.843Z,101283.52
2018-09-10T10:10:52.389Z,101288.48
2018-09-10T10:11:56.219Z,101280.19
2018-09-10T10:12:59.676Z,101280.52
2018-09-10T10:14:03.483Z,101289.86
2018-09-10T10:15:07.096Z,101283.84
2018-09-10T10:16:10.531Z,101282.70
2018-09-10T10:17:13.971Z,101281.90
2018-09-10T10:18:17.370Z,101279.94
2018-09-10T10:19:20.808Z,101277.75
2018-09-10T10:20:24.178Z,101279.38
2018-09-10T10:21:27.588Z,101271.55
2018-09-10T10:22:30.986Z,101278.32
2018-09-10T10:23:34.459Z,101276.94
2018-09-10T10:24:37.853Z,101277.75
2018-09-10T10:25:41.242Z,101273.21
2018-09-10T10:26:44.651Z,101286.28
2018-09-10T10:27:48.065Z,101289.38
2018-09-10T10:28:51.454Z,101289.86
2018-09-10T10:29:54.855Z,101292.62
2018-09-10T10:30:58.302Z,101295.63
2018-09-10T10:32:01.748Z,101292.86
2018-09-10T10:33:05.152Z,101297.82
2018-09-10T10:34:08.577Z,101288.72
2018-09-10T10:35:12.031Z,101291.48
2018-09-10T10:36:15.552Z,101280.42
2018-09-10T10:37:18.966Z,101280.76
2018-09-10T10:38:22.396Z,101277.09
2018-09-10T10:39:25.896Z,101280.67
2018-09-10T10:40:29.250Z,101279.05
2018-09-10T10:41:32.741Z,101281.16
2018-09-10T10:42:36.481Z,101281.39
2018-09-10T10:43:39.900Z,101279.44
2018-09-10T10:44:43.294Z,101277.25
2018-09-10T10:47:21.581Z,101281.63
2018-09-10T10:48:25.017Z,101281.58
2018-09-10T10:49:28.534Z,101281.58
2018-09-10T10:50:32.023Z,101281.00
2018-09-10T10:51:35.425Z,101275.48
2018-09-10T10:52:38.805Z,101286.83
2018-09-10T10:53:42.299Z,101276.19
2018-09-10T10:54:45.715Z,101289.87
2018-09-10T10:55:49.264Z,101276.19
2018-09-10T10:56:52.693Z,101285.72
2018-09-10T10:57:56.093Z,101287.10
2018-09-10T10:58:59.495Z,101292.63
2018-09-10T11:00:02.899Z,101282.86
2018-09-10T11:01:06.372Z,101294.31
2018-09-10T11:02:09.769Z,101291.55
2018-09-10T11:03:13.163Z,101294.08
2018-09-10T11:04:16.577Z,101293.83
2018-09-10T11:05:19.970Z,101301.07
2018-09-10T11:06:23.665Z,101292.53
2018-09-10T11:07:27.085Z,101301.40
2018-09-10T11:08:30.601Z,101299.20
2018-09-10T11:09:34.039Z,101298.96
2018-09-10T11:10:37.449Z,101294.58
2018-09-10T11:11:40.850Z,101293.77
2018-09-10T11:12:44.248Z,101289.13
2018-09-10T11:13:47.687Z,101290.52
2018-09-10T11:14:51.355Z,101292.47
2018-09-10T11:15:54.808Z,101293.28
2018-09-10T11:16:58.378Z,101298.48
2018-09-10T11:18:01.782Z,101297.67
2018-09-10T11:19:05.263Z,101301.57
2018-09-10T11:20:08.913Z,101297.09
2018-09-10T11:21:12.316Z,101297.91
2018-09-10T11:22:15.706Z,101298.72
2018-09-10T11:23:19.157Z,101303.68
2018-09-10T11:24:22.580Z,101295.63
2018-09-10T11:25:25.984Z,101299.53
2018-09-10T11:26:30.201Z,101291.57
2018-09-10T11:27:33.691Z,101302.54
2018-09-10T11:28:37.081Z,101310.02
2018-09-10T11:29:40.487Z,101305.30
2018-09-10T11:30:43.926Z,101303.35
2018-09-10T11:31:47.507Z,101298.64
2018-09-10T11:32:50.973Z,101301.40
2018-09-10T11:33:54.360Z,101293.34
2018-09-10T11:34:58.080Z,101278.65
2018-09-10T11:36:01.532Z,101285.38
2018-09-10T11:37:04.976Z,101285.72
2018-09-10T11:38:08.403Z,101284.24
2018-09-10T11:39:11.810Z,101282.05
2018-09-10T11:40:15.257Z,101284.81
2018-09-10T11:41:18.675Z,101283.44
2018-09-10T11:42:22.080Z,101281.81
2018-09-10T11:43:25.628Z,101278.80
2018-09-10T11:44:29.012Z,101276.28
2018-09-10T11:45:32.473Z,101277.42
2018-09-10T11:46:35.977Z,101280.19
2018-09-10T11:47:39.354Z,101271.08
2018-09-10T11:48:42.779Z,101266.36
2018-09-10T11:49:46.192Z,101269.12
2018-09-10T11:50:49.630Z,101270.52
2018-09-10T11:51:52.998Z,101265.55
2018-09-10T11:52:56.396Z,101270.27
2018-09-10T11:53:59.822Z,101262.55
2018-09-10T11:55:03.219Z,101263.03
2018-09-10T11:56:06.640Z,101260.03
2018-09-10T11:57:10.038Z,101268.31
2018-09-10T11:58:13.415Z,101264.41
2018-09-10T11:59:17.167Z,101264.74
2018-09-10T12:00:20.568Z,101264.41
2018-09-10T12:01:23.996Z,101264.98
2018-09-10T12:02:27.385Z,101270.52
2018-09-10T12:03:30.796Z,101269.94
2018-09-10T12:04:34.414Z,101274.09
2018-09-10T12:05:37.867Z,101267.98
2018-09-10T12:06:41.345Z,101267.42